• Join FlightAware (Why Join?)
  • Login
  • US Flag 
11:49AM EST


 

Airport Tracker/Info


-or-


 

Live Flight TrackerFlight Track Log ✈ AAL667 ✈ 26-Apr-2013 ✈ KIND - KDFW

Flight Track Log - Related Links

Times and Time Zones

All times are in EDT time to prevent confusion due to time zone crossing. See the AAL667 flight status page for this flight to view local times or setup timezone preferences in your user account.

Time Position Orientation Groundspeed Altitude Reporting Facility
EDT Latitude Longitude Course Direction KTS MPH feet Rate Location/Type
07:29PM 39.7000 -86.3333 252° West 182 209 1,700  Level Indianapolis TRACON
07:30PM 39.6608 -86.4156 238° Southwest 210 242 4,900 2,160 Climbing Indianapolis Center
07:31PM 39.6207 -86.6467 256° West  Level FlightAware Approximate
07:31PM 39.6439 -86.5069 256° West 250 288 7,300  Level Indianapolis Center
07:32PM 39.5960 -86.7706 256° West  Level FlightAware Approximate
07:32PM 39.6231 -86.6053 255° West 272 313 10,400  Level Indianapolis Center
07:33PM 39.5711 -86.8945 255° West  Level FlightAware Approximate
07:33PM 39.5997 -86.7203 255° West 326 375 11,900  Level Indianapolis Center
07:34PM 39.5345 -87.0121 252° West  Level FlightAware Approximate
07:34PM 39.5736 -86.8494 255° West 360 414 14,500  Level Indianapolis Center
07:35PM 39.5489 -87.0036 258° West 370 426 17,700 2,280 Climbing Indianapolis Center
07:36PM 39.5236 -87.1367 256° West 376 433 19,200 1,800 Climbing Indianapolis Center
07:37PM 39.4992 -87.2761 257° West 389 448 21,400 2,040 Climbing Indianapolis Center
07:38PM 39.4733 -87.4133 256° West 391 450 23,500 1,800 Climbing Indianapolis Center
07:40PM 39.4478 -87.5511 257° West 391 450 25,200 1,560 Climbing Indianapolis Center
07:41PM 39.4219 -87.6900 257° West 394 453 26,800 1,800 Climbing Indianapolis Center
07:42PM 39.3961 -87.8269 256° West 391 450 29,000 1,560 Climbing Indianapolis Center
07:43PM 39.3711 -87.9586 256° West 377 434 30,000 480 Climbing Indianapolis Center
07:44PM 39.3422 -88.1083 256° West 388 447 30,000  Level Indianapolis Center
07:45PM 39.3164 -88.2447 256° West 391 450 30,000  Level Indianapolis Center
07:46PM 39.2894 -88.3803 256° West 390 449 30,000  Level Indianapolis Center
07:47PM 39.2647 -88.5147 257° West 386 444 30,000  Level Indianapolis Center
07:48PM 39.2372 -88.6486 255° West 386 444 30,000  Level Indianapolis Center
07:49PM 39.2114 -88.7825 256° West 383 441 30,000  Level Indianapolis Center
07:50PM 39.1844 -88.9150 255° West 383 441 30,000  Level Indianapolis Center
07:51PM 39.1531 -89.0747 256° West 383 441 30,000  Level Indianapolis Center
07:52PM 39.1256 -89.2094 255° West 387 445 30,000  Level Indianapolis Center
07:53PM 39.0989 -89.3439 256° West 387 445 30,000  Level Indianapolis Center
07:54PM 39.0639 -89.5111 255° West 385 443 30,000 360 Level Kansas City Center
07:55PM 39.0369 -89.6439 255° West 386 444 30,900 960 Climbing Kansas City Center
07:56PM 39.0083 -89.7850 255° West 382 440 32,000 840 Climbing Kansas City Center
07:57PM 38.9806 -89.9147 255° West 379 436 32,700 660 Climbing Kansas City Center
07:58PM 38.9533 -90.0481 255° West 377 434 33,400 600 Climbing Kansas City Center
07:59PM 38.9283 -90.1669 255° West 373 429 34,000 240 Climbing Kansas City Center
08:00PM 38.9022 -90.2967 256° West 372 428 34,000  Level Kansas City Center
08:01PM 38.8753 -90.4283 255° West 377 434 34,000  Level Kansas City Center
08:02PM 38.8064 -90.5606 236° Southwest 363 418 34,000  Level Kansas City Center
08:03PM 38.7361 -90.6653 229° Southwest 376 433 34,000  Level Kansas City Center
08:04PM 38.6661 -90.7678 229° Southwest 389 448 34,000  Level Kansas City Center
08:05PM 38.5956 -90.8706 229° Southwest 389 448 34,000  Level Kansas City Center
08:06PM 38.5250 -90.9728 229° Southwest 388 447 34,000  Level Kansas City Center
08:07PM 38.4550 -91.0756 229° Southwest 388 447 34,000  Level Kansas City Center
08:08PM 38.3844 -91.1761 228° Southwest 385 443 34,000  Level Kansas City Center
08:10PM 38.3000 -91.2967 228° Southwest 382 440 34,000  Level Kansas City Center
08:11PM 38.2300 -91.3953 228° Southwest 378 435 34,000  Level Kansas City Center
08:12PM 38.1664 -91.4867 228° Southwest 386 444 34,000  Level Kansas City Center
08:13PM 38.0803 -91.6106 229° Southwest 388 447 34,000  Level Kansas City Center
08:14PM 38.0069 -91.7133 228° Southwest 390 449 34,000  Level Kansas City Center
08:15PM 37.9331 -91.8178 228° Southwest 391 450 34,000  Level Kansas City Center
08:16PM 37.8600 -91.9225 229° Southwest 391 450 34,000  Level Kansas City Center
08:17PM 37.7864 -92.0253 228° Southwest 388 447 34,000  Level Kansas City Center
08:18PM 37.7092 -92.1350 228° Southwest 394 453 34,000  Level Kansas City Center
08:19PM 37.6350 -92.2386 228° Southwest 401 461 34,000  Level Kansas City Center
08:20PM 37.5594 -92.3444 228° Southwest 402 463 34,000  Level Kansas City Center
08:21PM 37.4844 -92.4497 228° Southwest 401 461 34,000  Level Kansas City Center
08:22PM 37.4094 -92.5528 228° Southwest 399 459 34,000  Level Kansas City Center
08:23PM 37.3344 -92.6567 228° Southwest 398 458 34,000  Level Kansas City Center
08:24PM 37.2586 -92.7586 227° Southwest 397 457 34,000  Level Kansas City Center
08:25PM 37.1786 -92.8561 224° Southwest 399 459 34,000  Level Kansas City Center
08:26PM 37.0667 -92.9525 215° Southwest 404 465 34,000  Level Kansas City Center
08:27PM 36.9706 -93.0272 212° Southwest 405 466 34,000  Level Kansas City Center
08:28PM 36.8753 -93.1025 212° Southwest 403 464 34,000  Level Kansas City Center
08:29PM 36.7800 -93.1783 213° Southwest 404 465 34,000  Level Kansas City Center
08:30PM 36.6878 -93.2600 215° Southwest 410 472 34,000  Level Memphis Center
08:31PM 36.5942 -93.3369 213° Southwest 410 472 34,000  Level Memphis Center
08:32PM 36.4839 -93.4181 211° Southwest 417 480 34,000  Level Memphis Center
08:33PM 36.4008 -93.4844 213° Southwest 417 480 34,000  Level Memphis Center
08:34PM 36.3075 -93.5556 212° Southwest 417 480 34,000  Level Memphis Center
08:35PM 36.2136 -93.6317 213° Southwest 417 480 34,000  Level Memphis Center
08:36PM 36.1200 -93.7050 212° Southwest 410 472 34,000  Level Memphis Center
08:37PM 36.0242 -93.7806 213° Southwest 410 472 34,000  Level Memphis Center
08:38PM 35.9303 -93.8536 212° Southwest 410 472 34,000  Level Memphis Center
08:39PM 35.8344 -93.9264 212° Southwest 410 472 34,000  Level Memphis Center
08:40PM 35.7406 -94.0017 213° Southwest 410 472 34,000  Level Memphis Center
08:41PM 35.6508 -94.0717 212° Southwest 416 479 34,000  Level Memphis Center
08:42PM 35.5528 -94.1464 212° Southwest 410 472 34,000  Level Memphis Center
08:43PM 35.4586 -94.2186 212° Southwest 410 472 34,000  Level Memphis Center
08:44PM 35.3625 -94.2956 213° Southwest 410 472 34,000  Level Memphis Center
08:45PM 35.2825 -94.3836 222° Southwest 404 465 34,000  Level Memphis Center
08:47PM 35.1397 -94.5422 222° Southwest 389 448 34,000  Level Fort Worth Center
08:48PM 35.0606 -94.6311 223° Southwest 389 448 34,000  Level Fort Worth Center
08:49PM 34.9789 -94.7200 222° Southwest 389 448 34,000  Level Fort Worth Center
08:50PM 34.8953 -94.8111 222° Southwest 389 448 34,000  Level Fort Worth Center
08:51PM 34.8158 -94.8969 222° Southwest 389 448 34,000 -540 Level Fort Worth Center
08:52PM 34.7319 -94.9881 222° Southwest 395 455 33,000 -1,380 Descending Fort Worth Center
08:53PM 34.6503 -95.0736 221° Southwest 395 455 31,300 -1,740 Descending Fort Worth Center
08:54PM 34.5664 -95.1592 220° Southwest 395 455 29,600 -1,740 Descending Fort Worth Center
08:55PM 34.4864 -95.2469 222° Southwest 401 461 27,900 -1,800 Descending Fort Worth Center
08:56PM 34.4003 -95.3344 220° Southwest 401 461 26,000 -1,920 Descending Fort Worth Center
08:57PM 34.3183 -95.4219 221° Southwest 401 461 24,100 -1,020 Descending Fort Worth Center
08:58PM 34.2342 -95.5144 222° Southwest 401 461 24,000 -60 Descending Fort Worth Center
08:59PM 34.1394 -95.6067 219° Southwest 401 461 24,000  Level Fort Worth Center
09:00PM 34.0697 -95.6833 222° Southwest 392 451 24,000  Level Fort Worth Center
09:01PM 33.9894 -95.7703 222° Southwest 387 445 24,000 -660 Level Fort Worth Center
09:02PM 33.9069 -95.8544 220° Southwest 387 445 22,800 -1,980 Descending Fort Worth Center
09:03PM 33.8206 -95.9433 221° Southwest 382 440 20,100 -2,100 Descending Fort Worth Center
09:04PM 33.7544 -96.0094 220° Southwest 363 418 18,600 -1,860 Descending Fort Worth Center
09:05PM 33.6800 -96.0881 221° Southwest 338 389 16,500 -2,040 Descending Fort Worth Center
09:06PM 33.6222 -96.1486 221° Southwest 329 379 14,600 -1,680 Descending Fort Worth Center
09:07PM 33.5500 -96.2219 220° Southwest 322 371 13,200 -1,380 Descending Fort Worth Center
09:08PM 33.5025 -96.2775 224° Southwest 286 329 11,900 -1,140 Descending Fort Worth Center
09:09PM 33.4447 -96.3481 226° Southwest 273 314 11,000 -1,020 Descending Fort Worth Center
09:10PM 33.3972 -96.4033 224° Southwest 273 314 9,900 -1,500 Descending Fort Worth Center
09:11PM 33.3392 -96.4736 225° Southwest 273 314 8,100 -1,440 Descending Fort Worth Center
09:12PM 33.2936 -96.5261 224° Southwest 273 314 7,100 -1,200 Descending Fort Worth Center
09:13PM 33.2753 -96.6033 254° West 246 283 5,800 -1,080 Descending Fort Worth Center
09:14PM 33.2717 -96.6953 267° West 246 283 5,000 -420 Descending Fort Worth Center
09:15PM 33.2722 -96.7650 271° West 246 283 5,000  Level Fort Worth Center
09:16PM 33.2747 -96.8419 272° West 220 253 5,000  Level Fort Worth Center
09:17PM 33.2686 -96.9042 263° West 213 245 5,000  Level Fort Worth Center
09:18PM 33.2458 -96.9714 248° West 208 239 5,000  Level Fort Worth Center
09:19PM 33.2022 -96.9914 201° Southwest 191 220 5,000  Level Fort Worth Center
09:20PM 33.1583 -97.0089 198° South 163 188 5,000 -60 Level Fort Worth Center
09:21PM 33.1208 -97.0092 180° South 158 182 4,900 -480 Descending Fort Worth Center
09:22PM 33.0833 -97.0167 190° South 155 178 4,100 -960 Descending Dallas / Fort Worth TRACON